createdAt,value
2023-01-09T00:00:00.483Z,70.98
2023-01-09T00:03:13.338Z,74.60
2023-01-09T00:06:25.622Z,71.95
2023-01-09T00:09:38.004Z,68.10
2023-01-09T00:12:50.333Z,63.25
2023-01-09T00:16:02.900Z,69.98
2023-01-09T00:19:15.748Z,70.05
2023-01-09T00:22:28.168Z,71.48
2023-01-09T00:25:42.508Z,69.15
2023-01-09T00:28:56.876Z,66.78
2023-01-09T00:32:10.823Z,66.05
2023-01-09T00:35:24.738Z,66.60
2023-01-09T00:38:37.504Z,70.35
2023-01-09T00:41:52.996Z,67.30
2023-01-09T00:45:09.601Z,66.68
2023-01-09T00:48:26.883Z,69.45
2023-01-09T00:51:39.194Z,68.58
2023-01-09T00:54:52.342Z,72.58
2023-01-09T00:58:05.051Z,61.70
2023-01-09T01:01:17.375Z,63.93
2023-01-09T01:04:44.230Z,64.48
2023-01-09T01:07:56.449Z,61.60
2023-01-09T01:11:13.174Z,64.00
2023-01-09T01:14:25.213Z,63.73
2023-01-09T01:17:37.371Z,67.60
2023-01-09T01:20:50.952Z,65.55
2023-01-09T01:24:03.056Z,60.60
2023-01-09T01:27:15.097Z,65.43
2023-01-09T01:30:28.071Z,60.25
2023-01-09T01:33:41.275Z,60.43
2023-01-09T01:36:53.355Z,60.23
2023-01-09T01:40:05.726Z,65.58
2023-01-09T01:43:19.910Z,62.95
2023-01-09T01:46:32.668Z,64.93
2023-01-09T01:49:45.406Z,63.93
2023-01-09T01:53:03.896Z,61.28
2023-01-09T01:56:20.709Z,58.95
2023-01-09T01:59:37.551Z,65.95
2023-01-09T02:02:49.973Z,62.35
2023-01-09T02:06:04.463Z,59.50
2023-01-09T02:09:19.158Z,57.83
2023-01-09T02:12:33.574Z,55.93
2023-01-09T02:16:02.107Z,61.03
2023-01-09T02:19:25.375Z,64.23
2023-01-09T02:22:44.761Z,61.65
2023-01-09T02:26:26.098Z,62.28
2023-01-09T02:30:28.369Z,61.73
2023-01-09T02:33:52.419Z,61.95
2023-01-09T02:37:09.392Z,59.05
2023-01-09T02:43:38.610Z,63.45
2023-01-09T02:46:51.199Z,62.20
2023-01-09T02:50:06.230Z,57.38
2023-01-09T02:53:41.290Z,60.18
2023-01-09T02:57:12.507Z,64.10
2023-01-09T03:00:34.815Z,61.13
2023-01-09T03:03:53.388Z,52.00
2023-01-09T03:07:11.610Z,59.85
2023-01-09T03:10:28.390Z,59.60
2023-01-09T03:13:46.419Z,55.08
2023-01-09T03:17:03.212Z,57.15
2023-01-09T03:20:20.765Z,55.08
2023-01-09T03:23:32.928Z,55.48
2023-01-09T03:26:45.395Z,60.83
2023-01-09T03:29:57.988Z,62.03
2023-01-09T03:33:10.543Z,61.53
2023-01-09T03:36:25.065Z,66.10
2023-01-09T03:39:37.571Z,58.65
2023-01-09T03:42:52.229Z,53.58
2023-01-09T03:46:04.647Z,60.10
2023-01-09T03:49:17.566Z,60.88
2023-01-09T03:52:29.654Z,59.80
2023-01-09T03:55:41.828Z,56.48
2023-01-09T03:58:54.486Z,60.00
2023-01-09T04:02:06.735Z,63.58
2023-01-09T04:05:19.344Z,62.05
2023-01-09T04:08:31.650Z,59.58
2023-01-09T04:11:43.706Z,64.48
2023-01-09T04:14:55.979Z,57.93
2023-01-09T04:18:08.633Z,56.93
2023-01-09T04:21:20.649Z,62.68
2023-01-09T04:24:32.796Z,68.33
2023-01-09T04:27:45.208Z,57.05
2023-01-09T04:30:57.355Z,60.98
2023-01-09T04:34:09.565Z,59.00
2023-01-09T04:37:22.004Z,61.35
2023-01-09T04:40:34.141Z,58.38
2023-01-09T04:43:46.253Z,59.68
2023-01-09T04:46:58.883Z,67.13
2023-01-09T04:50:12.610Z,57.15
2023-01-09T04:53:24.777Z,54.28
2023-01-09T04:56:37.102Z,56.05
2023-01-09T04:59:49.558Z,57.38
2023-01-09T05:03:02.874Z,57.18
2023-01-09T05:06:15.551Z,63.88
2023-01-09T05:09:27.986Z,61.18
2023-01-09T05:12:40.472Z,59.15
2023-01-09T05:15:52.572Z,58.90
2023-01-09T05:19:04.727Z,58.15
2023-01-09T05:22:16.926Z,62.70
2023-01-09T05:25:29.076Z,67.23
2023-01-09T05:28:41.276Z,61.18
2023-01-09T05:31:53.494Z,55.80
2023-01-09T05:35:05.746Z,57.60
2023-01-09T05:38:17.833Z,56.03
2023-01-09T05:41:30.077Z,58.48
2023-01-09T05:44:42.376Z,55.53
2023-01-09T05:47:54.425Z,58.70
2023-01-09T05:51:06.745Z,52.30
2023-01-09T05:54:19.003Z,51.58
2023-01-09T05:57:31.263Z,53.95
2023-01-09T06:00:43.480Z,56.90
2023-01-09T06:03:55.576Z,53.90
2023-01-09T06:07:07.689Z,52.93
2023-01-09T06:10:22.027Z,52.45
2023-01-09T06:13:34.297Z,53.25
2023-01-09T06:16:46.494Z,53.13
2023-01-09T06:19:58.618Z,55.38
2023-01-09T06:23:12.205Z,56.05
2023-01-09T06:26:25.119Z,53.75
2023-01-09T06:29:37.221Z,59.50
2023-01-09T06:32:49.352Z,54.63
2023-01-09T06:36:01.505Z,52.30
2023-01-09T06:39:14.108Z,55.45
2023-01-09T06:42:26.517Z,60.25
2023-01-09T06:45:38.589Z,56.95
2023-01-09T06:48:50.649Z,50.53
2023-01-09T06:52:04.874Z,50.58
2023-01-09T06:55:17.793Z,53.08
2023-01-09T06:58:29.995Z,54.05
2023-01-09T07:01:43.414Z,44.98
2023-01-09T07:04:55.972Z,51.28
2023-01-09T07:08:08.250Z,43.75
2023-01-09T07:11:20.303Z,47.75
2023-01-09T07:14:32.511Z,42.78
2023-01-09T07:17:44.756Z,48.55
2023-01-09T07:20:57.223Z,43.70
2023-01-09T07:24:09.597Z,47.63
2023-01-09T07:27:22.170Z,44.25
2023-01-09T07:30:34.196Z,190.40
2023-01-09T07:33:46.240Z,62.05
2023-01-09T07:36:58.365Z,49.75
2023-01-09T07:40:12.500Z,40.43
2023-01-09T07:43:24.877Z,45.73
2023-01-09T07:46:37.382Z,34.30
2023-01-09T07:49:49.404Z,22.40
2023-01-09T07:53:01.556Z,20.80
2023-01-09T07:56:14.831Z,21.98
2023-01-09T07:59:27.871Z,15.30
2023-01-09T08:02:40.136Z,18.58
2023-01-09T08:05:53.752Z,20.25
2023-01-09T08:09:05.840Z,19.23
2023-01-09T08:12:17.909Z,20.80
2023-01-09T08:15:30.925Z,18.50
2023-01-09T08:18:42.867Z,24.45
2023-01-09T08:21:55.014Z,24.05
2023-01-09T08:25:06.845Z,20.05
2023-01-09T08:28:18.919Z,19.80
2023-01-09T08:31:30.851Z,17.70
2023-01-09T08:34:42.913Z,16.95
2023-01-09T08:37:56.068Z,16.23
2023-01-09T08:41:09.971Z,16.23
2023-01-09T08:44:36.544Z,18.85
2023-01-09T08:47:48.457Z,15.25
2023-01-09T08:51:00.224Z,18.50
2023-01-09T08:54:12.702Z,18.20
2023-01-09T08:57:24.517Z,17.23
2023-01-09T09:00:36.961Z,12.83
2023-01-09T09:03:48.793Z,16.65
2023-01-09T09:07:00.576Z,17.70
2023-01-09T09:10:15.031Z,16.33
2023-01-09T09:13:26.801Z,18.13
2023-01-09T09:16:38.665Z,17.58
2023-01-09T09:19:50.707Z,15.85
2023-01-09T09:23:02.709Z,18.58
2023-01-09T09:26:14.959Z,13.83
2023-01-09T09:29:26.817Z,18.70
2023-01-09T09:32:39.153Z,12.53
2023-01-09T09:35:51.515Z,14.93
2023-01-09T09:39:03.420Z,17.98
2023-01-09T09:43:04.429Z,15.20
2023-01-09T09:46:22.817Z,36.38
2023-01-09T09:49:39.879Z,17.88
2023-01-09T09:52:57.326Z,30.20
2023-01-09T09:56:10.308Z,36.30
2023-01-09T09:59:26.927Z,35.53
2023-01-09T10:02:46.617Z,35.85
2023-01-09T10:06:00.456Z,40.25
2023-01-09T10:09:19.769Z,33.43
2023-01-09T10:12:37.232Z,35.88
2023-01-09T10:15:55.816Z,33.23
2023-01-09T10:19:19.459Z,32.63
2023-01-09T10:22:38.027Z,31.23
2023-01-09T10:25:55.596Z,21.58
2023-01-09T10:29:37.229Z,26.30
2023-01-09T10:33:01.400Z,23.08
2023-01-09T10:36:36.126Z,28.88
2023-01-09T10:39:53.591Z,15.08
2023-01-09T10:43:11.491Z,13.58
2023-01-09T10:46:29.296Z,8.63
2023-01-09T10:49:44.432Z,8.40
2023-01-09T10:52:59.349Z,6.85
2023-01-09T10:56:18.955Z,7.73
2023-01-09T10:59:31.578Z,6.65
2023-01-09T11:02:43.673Z,5.63
2023-01-09T11:06:00.744Z,7.40
2023-01-09T11:09:14.912Z,7.05
2023-01-09T11:12:34.106Z,8.00
2023-01-09T11:15:47.543Z,7.80
2023-01-09T11:19:02.523Z,10.08
2023-01-09T11:22:21.593Z,7.38
2023-01-09T11:25:34.844Z,9.55
2023-01-09T11:28:46.752Z,9.35
2023-01-09T11:32:02.180Z,11.23
2023-01-09T11:35:24.001Z,13.95
2023-01-09T11:38:40.172Z,12.55
2023-01-09T11:41:52.509Z,10.07
2023-01-09T11:45:06.831Z,11.70
2023-01-09T11:48:45.608Z,14.60
2023-01-09T11:52:20.480Z,9.85
2023-01-09T11:55:41.934Z,10.15
2023-01-09T11:58:47.428Z,9.93
2023-01-09T12:02:32.556Z,9.28
2023-01-09T12:05:52.439Z,9.63
2023-01-09T12:09:08.802Z,8.63
2023-01-09T12:12:29.337Z,10.43
2023-01-09T12:15:46.320Z,8.95
2023-01-09T12:19:09.143Z,7.95
2023-01-09T12:22:27.631Z,10.50
2023-01-09T12:25:52.371Z,8.95
2023-01-09T12:29:25.491Z,8.50
2023-01-09T12:32:52.143Z,5.10
2023-01-09T12:36:21.839Z,3.93
2023-01-09T12:39:43.419Z,3.05
2023-01-09T12:43:02.457Z,5.08
2023-01-09T12:46:22.697Z,6.20
2023-01-09T12:49:41.189Z,3.20
2023-01-09T12:52:59.954Z,4.35
2023-01-09T12:56:17.065Z,3.10
2023-01-09T13:02:51.677Z,2.80
2023-01-09T13:06:04.634Z,9.60
2023-01-09T13:09:26.325Z,34.53
2023-01-09T13:12:43.073Z,12.43
2023-01-09T13:15:59.565Z,13.18
2023-01-09T13:19:19.342Z,9.43
2023-01-09T13:22:34.044Z,10.43
2023-01-09T13:25:54.094Z,9.85
2023-01-09T13:29:14.070Z,11.10
2023-01-09T13:32:43.228Z,13.20
2023-01-09T13:36:02.929Z,12.93
2023-01-09T13:39:25.477Z,16.00
2023-01-09T13:42:43.378Z,13.00
2023-01-09T13:45:58.847Z,16.35
2023-01-09T13:49:13.655Z,14.95
2023-01-09T13:52:43.375Z,14.43
2023-01-09T13:56:14.218Z,18.55
2023-01-09T13:59:35.561Z,14.08
2023-01-09T14:03:21.333Z,12.48
2023-01-09T14:06:33.373Z,16.65
2023-01-09T14:09:49.475Z,18.15
2023-01-09T14:13:03.023Z,18.90
2023-01-09T14:16:23.732Z,21.93
2023-01-09T14:19:44.774Z,25.33
2023-01-09T14:23:28.147Z,19.83
2023-01-09T14:26:25.516Z,26.98
2023-01-09T14:29:54.257Z,23.78
2023-01-09T14:33:09.204Z,30.18
2023-01-09T14:36:28.537Z,25.93
2023-01-09T14:39:42.562Z,21.58
2023-01-09T14:42:58.935Z,24.18
2023-01-09T14:46:19.708Z,26.68
2023-01-09T14:49:38.393Z,22.50
2023-01-09T14:52:56.095Z,24.28
2023-01-09T14:56:12.005Z,20.50
2023-01-09T14:59:24.540Z,23.73
2023-01-09T15:02:41.317Z,22.50
2023-01-09T15:05:56.064Z,20.65
2023-01-09T15:09:12.828Z,26.95
2023-01-09T15:12:28.350Z,26.73
2023-01-09T15:15:41.657Z,21.38
2023-01-09T15:18:57.788Z,26.68
2023-01-09T15:22:16.485Z,27.07
2023-01-09T15:25:40.226Z,23.08
2023-01-09T15:28:50.832Z,23.33
2023-01-09T15:32:08.327Z,24.60
2023-01-09T15:35:22.381Z,26.53
2023-01-09T15:38:37.699Z,31.68
2023-01-09T15:42:06.543Z,31.00
2023-01-09T15:45:32.117Z,33.43
2023-01-09T15:48:44.452Z,31.05
2023-01-09T15:51:57.489Z,41.33
2023-01-09T15:55:21.582Z,31.55
2023-01-09T15:58:36.773Z,27.28
2023-01-09T16:01:51.459Z,30.38
2023-01-09T16:05:04.208Z,26.55
2023-01-09T16:08:34.601Z,26.63
2023-01-09T16:11:52.124Z,27.38
2023-01-09T16:15:06.724Z,24.05
2023-01-09T16:18:31.396Z,19.90
2023-01-09T16:21:45.052Z,14.40
2023-01-09T16:24:59.169Z,11.40
2023-01-09T16:28:30.219Z,9.43
2023-01-09T16:31:42.668Z,8.83
2023-01-09T16:35:05.675Z,8.10
2023-01-09T16:38:21.158Z,6.80
2023-01-09T16:41:47.512Z,7.10
2023-01-09T16:45:00.367Z,5.90
2023-01-09T16:48:20.471Z,8.08
2023-01-09T16:51:33.024Z,9.28
2023-01-09T16:54:46.972Z,9.33
2023-01-09T16:57:59.597Z,13.65
2023-01-09T17:01:13.562Z,26.48
2023-01-09T17:04:28.251Z,26.25
2023-01-09T17:07:40.719Z,28.20
2023-01-09T17:10:52.630Z,12.45
2023-01-09T17:14:06.199Z,11.85
2023-01-09T17:17:19.962Z,8.63
2023-01-09T17:20:32.961Z,12.93
2023-01-09T17:23:44.879Z,9.35
2023-01-09T17:27:12.914Z,10.75
2023-01-09T17:30:26.755Z,10.58
2023-01-09T17:33:39.839Z,9.88
2023-01-09T17:36:53.026Z,11.28
2023-01-09T17:40:05.534Z,9.68
2023-01-09T17:43:19.064Z,11.93
2023-01-09T17:46:36.415Z,16.60
2023-01-09T17:49:48.866Z,12.65
2023-01-09T17:53:00.911Z,12.95
2023-01-09T17:56:15.773Z,15.73
2023-01-09T17:59:29.342Z,12.15
2023-01-09T18:02:41.544Z,12.80
2023-01-09T18:05:53.886Z,14.15
2023-01-09T18:09:06.708Z,13.90
2023-01-09T18:12:19.420Z,13.88
2023-01-09T18:15:31.478Z,15.23
2023-01-09T18:18:44.950Z,13.28
2023-01-09T18:21:59.056Z,13.33
2023-01-09T18:25:13.254Z,14.00
2023-01-09T18:28:25.723Z,15.08
2023-01-09T18:31:38.064Z,21.23
2023-01-09T18:34:50.244Z,20.78
2023-01-09T18:38:02.412Z,14.55
2023-01-09T18:41:14.704Z,16.38
2023-01-09T18:44:27.904Z,16.28
2023-01-09T18:47:39.814Z,18.05
2023-01-09T18:50:52.291Z,18.98
2023-01-09T18:54:04.768Z,17.65
2023-01-09T18:57:16.885Z,20.45
2023-01-09T19:00:29.595Z,20.38
2023-01-09T19:03:42.054Z,21.90
2023-01-09T19:06:56.199Z,19.93
2023-01-09T19:10:09.143Z,20.05
2023-01-09T19:13:21.129Z,18.28
2023-01-09T19:16:33.240Z,17.88
2023-01-09T19:19:45.679Z,20.85
2023-01-09T19:22:58.156Z,18.65
2023-01-09T19:26:13.509Z,19.98
2023-01-09T19:29:25.715Z,22.33
2023-01-09T19:32:39.923Z,21.20
2023-01-09T19:35:56.069Z,19.78
2023-01-09T19:39:10.194Z,24.67
2023-01-09T19:42:23.601Z,21.43
2023-01-09T19:45:35.682Z,21.55
2023-01-09T19:48:48.109Z,21.40
2023-01-09T19:52:01.187Z,22.25
2023-01-09T19:55:15.017Z,22.15
2023-01-09T19:58:27.869Z,26.88
2023-01-09T20:01:42.710Z,24.35
2023-01-09T20:04:55.459Z,25.90
2023-01-09T20:08:08.633Z,23.35
2023-01-09T20:11:21.744Z,25.75
2023-01-09T20:14:36.085Z,24.73
2023-01-09T20:17:48.338Z,23.48
2023-01-09T20:21:00.901Z,24.93
2023-01-09T20:24:15.322Z,21.80
2023-01-09T20:27:27.376Z,22.13
2023-01-09T20:30:39.442Z,24.15
2023-01-09T20:33:53.032Z,24.83
2023-01-09T20:37:05.408Z,27.83
2023-01-09T20:40:19.273Z,25.43
2023-01-09T20:43:32.055Z,27.20
2023-01-09T20:46:47.454Z,30.15
2023-01-09T20:49:59.895Z,24.38
2023-01-09T20:53:12.522Z,23.80
2023-01-09T20:56:24.858Z,26.93
2023-01-09T20:59:37.134Z,28.80
2023-01-09T21:02:49.456Z,29.38
2023-01-09T21:06:01.869Z,25.10
2023-01-09T21:09:14.626Z,27.10
2023-01-09T21:12:31.886Z,25.03
2023-01-09T21:15:45.219Z,28.40
2023-01-09T21:18:58.761Z,28.80
2023-01-09T21:22:11.189Z,29.15
2023-01-09T21:25:23.582Z,28.78
2023-01-09T21:28:37.958Z,28.10
2023-01-09T21:31:50.280Z,25.00
2023-01-09T21:35:04.919Z,27.23
2023-01-09T21:38:17.182Z,32.00
2023-01-09T21:41:43.433Z,28.33
2023-01-09T21:45:10.041Z,31.40
2023-01-09T21:48:23.634Z,28.93
2023-01-09T21:51:37.991Z,29.00
2023-01-09T21:54:50.742Z,33.43
2023-01-09T21:58:04.289Z,29.53
2023-01-09T22:01:16.553Z,31.30
2023-01-09T22:04:33.480Z,33.55
2023-01-09T22:07:45.799Z,34.40
2023-01-09T22:11:04.667Z,33.33
2023-01-09T22:14:19.694Z,32.75
2023-01-09T22:17:31.904Z,34.33
2023-01-09T22:20:44.162Z,30.50
2023-01-09T22:23:57.552Z,34.58
2023-01-09T22:27:09.823Z,31.18
2023-01-09T22:30:23.208Z,29.58
2023-01-09T22:33:35.574Z,33.05
2023-01-09T22:36:48.346Z,34.48
2023-01-09T22:40:00.548Z,30.65
2023-01-09T22:43:14.825Z,29.25
2023-01-09T22:46:27.269Z,33.23
2023-01-09T22:49:52.460Z,33.63
2023-01-09T22:52:53.640Z,30.90
2023-01-09T22:56:08.441Z,37.20
2023-01-09T22:59:20.567Z,35.13
2023-01-09T23:02:32.837Z,36.40
2023-01-09T23:05:45.285Z,34.20
2023-01-09T23:08:58.503Z,37.30
2023-01-09T23:12:11.558Z,34.93
2023-01-09T23:15:24.143Z,35.00
2023-01-09T23:18:36.796Z,35.45
2023-01-09T23:21:49.599Z,32.90
2023-01-09T23:25:01.702Z,33.80
2023-01-09T23:28:14.037Z,35.45
2023-01-09T23:31:26.457Z,32.93
2023-01-09T23:34:39.482Z,35.00
2023-01-09T23:37:51.643Z,39.80
2023-01-09T23:41:04.626Z,34.23
2023-01-09T23:44:16.849Z,36.95
2023-01-09T23:47:30.673Z,35.05
2023-01-09T23:50:43.881Z,33.15
2023-01-09T23:53:56.173Z,32.55
2023-01-09T23:57:08.765Z,33.08
